createdAt,value
2019-01-03T00:04:43.148Z,0.23
2019-01-03T00:09:58.543Z,0.25
2019-01-03T00:15:19.536Z,0.25
2019-01-03T00:20:39.288Z,0.24
2019-01-03T00:26:10.319Z,0.23
2019-01-03T00:31:27.236Z,0.24
2019-01-03T00:36:49.277Z,0.24
2019-01-03T00:42:09.566Z,0.22
2019-01-03T00:47:30.824Z,0.23
2019-01-03T00:52:54.569Z,0.22
2019-01-03T00:58:15.275Z,0.23
2019-01-03T01:03:32.269Z,0.19
2019-01-03T01:08:54.973Z,0.13
2019-01-03T01:14:19.107Z,0.04
2019-01-03T01:19:43.886Z,0.02
2019-01-03T01:25:04.610Z,-0.01
2019-01-03T01:30:45.209Z,-0.04
2019-01-03T01:36:05.900Z,-0.07
2019-01-03T01:41:20.701Z,-0.08
2019-01-03T01:46:46.078Z,-0.10
2019-01-03T01:52:02.934Z,-0.13
2019-01-03T01:57:24.459Z,-0.14
2019-01-03T02:02:45.109Z,-0.14
2019-01-03T02:08:07.439Z,-0.12
2019-01-03T02:13:31.268Z,-0.13
2019-01-03T02:18:52.124Z,-0.13
2019-01-03T02:24:12.353Z,-0.15
2019-01-03T02:29:40.936Z,-0.15
2019-01-03T02:35:02.280Z,-0.20
2019-01-03T02:40:23.579Z,-0.20
2019-01-03T02:46:03.463Z,-0.19
2019-01-03T02:51:24.142Z,-0.20
2019-01-03T02:56:48.952Z,-0.19
2019-01-03T03:02:09.912Z,-0.20
2019-01-03T03:07:27.557Z,-0.16
2019-01-03T03:12:40.134Z,-0.13
2019-01-03T03:18:01.682Z,-0.09
2019-01-03T03:23:24.479Z,-0.06
2019-01-03T03:28:45.411Z,-0.04
2019-01-03T03:34:15.388Z,-0.06
2019-01-03T03:39:36.549Z,-0.10
2019-01-03T03:44:58.413Z,-0.14
2019-01-03T03:50:13.995Z,-0.18
2019-01-03T03:55:27.698Z,-0.21
2019-01-03T04:00:48.111Z,-0.21
2019-01-03T04:06:08.977Z,-0.23
2019-01-03T04:11:32.298Z,-0.23
2019-01-03T04:17:09.692Z,-0.26
2019-01-03T04:22:36.494Z,-0.27
2019-01-03T04:27:57.385Z,-0.26
2019-01-03T04:33:13.888Z,-0.26
2019-01-03T04:38:30.402Z,-0.24
2019-01-03T04:43:50.781Z,-0.20
2019-01-03T04:49:21.037Z,-0.19
2019-01-03T04:54:40.109Z,-0.14
2019-01-03T05:00:01.808Z,-0.12
2019-01-03T05:05:29.916Z,-0.10
2019-01-03T05:10:58.613Z,-0.08
2019-01-03T05:16:19.189Z,-0.07
2019-01-03T05:21:39.743Z,-0.02
2019-01-03T05:27:02.083Z,0.04
2019-01-03T05:32:24.432Z,0.05
2019-01-03T05:37:56.634Z,0.08
2019-01-03T05:43:33.955Z,0.10
2019-01-03T05:48:49.106Z,0.13
2019-01-03T05:54:08.490Z,0.17
2019-01-03T05:59:31.807Z,0.22
2019-01-03T06:04:54.628Z,0.30
2019-01-03T06:10:15.319Z,0.33
2019-01-03T06:15:35.411Z,0.36
2019-01-03T06:21:15.070Z,0.44
2019-01-03T06:26:35.902Z,0.54
2019-01-03T06:32:00.575Z,0.59
2019-01-03T06:37:20.788Z,0.60
2019-01-03T06:42:45.200Z,0.60
2019-01-03T06:48:05.309Z,0.64
2019-01-03T06:53:34.956Z,0.67
2019-01-03T06:59:09.835Z,0.71
2019-01-03T07:04:36.008Z,0.74
2019-01-03T07:09:56.388Z,0.73
2019-01-03T07:15:22.178Z,0.71
2019-01-03T07:20:49.629Z,0.73
2019-01-03T07:26:06.325Z,0.75
2019-01-03T07:31:26.775Z,0.74
2019-01-03T07:36:42.841Z,0.74
2019-01-03T07:42:03.462Z,0.73
2019-01-03T07:47:21.707Z,0.73
2019-01-03T07:52:43.668Z,0.77
2019-01-03T07:58:11.510Z,0.81
2019-01-03T08:03:28.127Z,0.84
2019-01-03T08:08:49.030Z,0.92
2019-01-03T08:14:09.763Z,0.96
2019-01-03T08:19:40.738Z,1.03
2019-01-03T08:25:05.556Z,1.09
2019-01-03T08:30:18.783Z,1.17
2019-01-03T08:35:46.227Z,1.16
2019-01-03T08:41:06.556Z,1.22
2019-01-03T08:46:27.458Z,1.29
2019-01-03T08:51:52.135Z,1.40
2019-01-03T08:57:18.224Z,1.44
2019-01-03T09:02:46.252Z,1.49
2019-01-03T09:08:06.360Z,1.54
2019-01-03T09:13:28.839Z,1.53
2019-01-03T09:18:58.590Z,1.56
2019-01-03T09:24:19.107Z,1.62
2019-01-03T09:29:47.434Z,1.64
2019-01-03T09:34:58.194Z,1.68
2019-01-03T09:40:18.890Z,1.70
2019-01-03T09:45:21.019Z,1.75
2019-01-03T09:50:24.095Z,1.79
2019-01-03T09:55:26.476Z,1.81
2019-01-03T10:00:28.661Z,1.82
2019-01-03T10:05:30.842Z,1.87
2019-01-03T10:10:33.096Z,1.94
2019-01-03T10:15:35.608Z,1.99
2019-01-03T10:20:38.003Z,2.05
2019-01-03T10:25:40.163Z,2.12
2019-01-03T10:30:43.782Z,2.17
2019-01-03T10:35:45.971Z,2.22
2019-01-03T10:40:48.652Z,2.22
2019-01-03T10:45:51.251Z,2.19
2019-01-03T10:50:53.434Z,2.18
2019-01-03T10:55:55.625Z,2.14
2019-01-03T11:00:58.542Z,2.16
2019-01-03T11:06:01.034Z,2.21
2019-01-03T11:11:03.282Z,2.22
2019-01-03T11:16:05.580Z,2.24
2019-01-03T11:21:07.747Z,2.28
2019-01-03T11:26:10.154Z,2.35
2019-01-03T11:31:13.124Z,2.45
2019-01-03T11:36:15.368Z,2.52
2019-01-03T11:41:17.535Z,2.60
2019-01-03T11:46:20.180Z,2.71
2019-01-03T11:51:22.514Z,2.80
2019-01-03T11:56:24.799Z,2.86
2019-01-03T12:01:27.299Z,2.88
2019-01-03T12:06:30.098Z,2.92
2019-01-03T12:11:32.727Z,2.99
2019-01-03T12:16:35.177Z,3.04
2019-01-03T12:21:37.659Z,3.06
2019-01-03T12:26:40.260Z,3.07
2019-01-03T12:31:42.418Z,3.11
2019-01-03T12:36:45.381Z,3.12
2019-01-03T12:41:48.367Z,3.17
2019-01-03T12:46:50.509Z,3.24
2019-01-03T12:51:53.106Z,3.28
2019-01-03T12:56:55.990Z,3.34
2019-01-03T13:01:58.466Z,3.36
2019-01-03T13:07:01.612Z,3.39
2019-01-03T13:12:03.927Z,3.43
2019-01-03T13:17:06.078Z,3.47
2019-01-03T13:22:08.572Z,3.52
2019-01-03T13:27:11.066Z,3.53
2019-01-03T13:32:13.498Z,3.51
2019-01-03T13:37:16.118Z,3.53
2019-01-03T13:42:18.431Z,3.50
2019-01-03T13:47:20.756Z,3.47
2019-01-03T13:52:23.675Z,3.46
2019-01-03T13:57:26.322Z,3.46
2019-01-03T14:02:29.248Z,3.46
2019-01-03T14:07:31.491Z,3.43
2019-01-03T14:12:33.700Z,3.42
2019-01-03T14:17:36.640Z,3.35
2019-01-03T14:22:39.645Z,3.32
2019-01-03T14:27:42.192Z,3.28
2019-01-03T14:32:45.209Z,3.18
2019-01-03T14:37:47.399Z,3.12
2019-01-03T14:42:50.016Z,3.03
2019-01-03T14:47:52.448Z,2.97
2019-01-03T14:52:55.115Z,2.87
2019-01-03T14:57:57.272Z,2.83
2019-01-03T15:02:59.965Z,2.76
2019-01-03T15:08:02.306Z,2.68
2019-01-03T15:13:04.484Z,2.59
2019-01-03T15:18:06.877Z,2.53
2019-01-03T15:23:09.336Z,2.50
2019-01-03T15:28:12.587Z,2.45
2019-01-03T15:33:14.992Z,2.40
2019-01-03T15:38:18.267Z,2.32
2019-01-03T15:43:20.460Z,2.25
2019-01-03T15:48:22.730Z,2.20
2019-01-03T15:53:25.533Z,2.14
2019-01-03T15:58:27.644Z,2.08
2019-01-03T16:03:29.952Z,2.06
2019-01-03T16:08:32.332Z,2.05
2019-01-03T16:13:35.442Z,2.03
2019-01-03T16:18:38.305Z,2.01
2019-01-03T16:23:40.572Z,2.01
2019-01-03T16:28:43.273Z,2.00
2019-01-03T16:33:45.488Z,1.98
2019-01-03T16:38:47.629Z,1.96
2019-01-03T16:43:49.837Z,1.92
2019-01-03T16:48:52.251Z,1.90
2019-01-03T16:53:54.481Z,1.88
2019-01-03T16:58:57.688Z,1.86
2019-01-03T17:03:59.987Z,1.85
2019-01-03T17:09:03.655Z,1.82
2019-01-03T17:14:07.040Z,1.85
2019-01-03T17:19:09.427Z,1.87
2019-01-03T17:24:11.752Z,1.87
2019-01-03T17:29:14.392Z,1.86
2019-01-03T17:34:17.085Z,1.84
2019-01-03T17:39:19.224Z,1.79
2019-01-03T17:44:22.100Z,1.76
2019-01-03T17:49:24.563Z,1.73
2019-01-03T17:54:27.243Z,1.69
2019-01-03T17:59:29.700Z,1.62
2019-01-03T18:04:32.398Z,1.57
2019-01-03T18:09:34.717Z,1.50
2019-01-03T18:14:37.168Z,1.45
2019-01-03T18:19:39.866Z,1.42
2019-01-03T18:24:42.352Z,1.36
2019-01-03T18:29:45.126Z,1.28
2019-01-03T18:34:47.795Z,1.22
2019-01-03T18:39:50.693Z,1.17
2019-01-03T18:44:53.142Z,1.14
2019-01-03T18:49:55.842Z,1.13
2019-01-03T18:54:57.999Z,1.09
2019-01-03T19:00:00.243Z,1.06
2019-01-03T19:05:02.552Z,1.04
2019-01-03T19:10:07.474Z,1.00
2019-01-03T19:15:10.114Z,0.98
2019-01-03T19:20:13.647Z,0.88
2019-01-03T19:25:17.847Z,0.86
2019-01-03T19:30:20.652Z,0.81
2019-01-03T19:35:23.107Z,0.76
2019-01-03T19:40:25.263Z,0.72
2019-01-03T19:45:27.449Z,0.69
2019-01-03T19:50:29.703Z,0.64
2019-01-03T19:55:32.007Z,0.58
2019-01-03T20:00:34.422Z,0.55
2019-01-03T20:05:36.607Z,0.53
2019-01-03T20:10:38.783Z,0.49
2019-01-03T20:15:41.595Z,0.46
2019-01-03T20:20:43.864Z,0.42
2019-01-03T20:25:46.925Z,0.37
2019-01-03T20:30:49.707Z,0.35
2019-01-03T20:35:51.910Z,0.29
2019-01-03T20:40:54.708Z,0.23
2019-01-03T20:45:57.364Z,0.17
2019-01-03T20:50:59.688Z,0.16
2019-01-03T20:56:01.890Z,0.13
2019-01-03T21:01:04.085Z,0.09
2019-01-03T21:06:06.521Z,0.05
2019-01-03T21:11:08.966Z,0.06
2019-01-03T21:16:11.937Z,0.05
2019-01-03T21:21:14.533Z,0.00
2019-01-03T21:26:16.939Z,-0.02
2019-01-03T21:31:19.087Z,-0.02
2019-01-03T21:36:21.998Z,-0.05
2019-01-03T21:41:24.651Z,-0.07
2019-01-03T21:46:27.082Z,-0.13
2019-01-03T21:51:29.565Z,-0.10
2019-01-03T21:56:31.763Z,-0.12
2019-01-03T22:01:34.027Z,-0.14
2019-01-03T22:06:36.188Z,-0.18
2019-01-03T22:11:38.936Z,-0.18
2019-01-03T22:16:41.566Z,-0.20
2019-01-03T22:21:44.210Z,-0.21
2019-01-03T22:26:46.906Z,-0.21
2019-01-03T22:31:50.075Z,-0.18
2019-01-03T22:36:52.232Z,-0.14
2019-01-03T22:41:54.935Z,-0.10
2019-01-03T22:46:57.136Z,-0.04
2019-01-03T22:51:59.317Z,-0.01
2019-01-03T22:57:01.737Z,0.02
2019-01-03T23:02:04.444Z,0.08
2019-01-03T23:07:07.123Z,0.14
2019-01-03T23:12:09.911Z,0.18
2019-01-03T23:17:12.797Z,0.23
2019-01-03T23:22:15.203Z,0.26
2019-01-03T23:27:17.873Z,0.29
2019-01-03T23:32:21.082Z,0.32
2019-01-03T23:37:23.477Z,0.37
2019-01-03T23:42:25.941Z,0.39
2019-01-03T23:47:28.603Z,0.41
2019-01-03T23:52:31.299Z,0.44
2019-01-03T23:57:33.735Z,0.48
